| time (UTC) | temp F | wind direction | speed MPH | gust MPH | rain 1hr in | rain 24hr in | rain mn in | humidity % | barometer mb |
| 20260903090046 | 72 | 1 | 1.0 | 3.0 | 0.00 | 0.03 | 0.00 | 94 | 972.7 |
| 20260903084538 | 72 | 1 | 2.0 | 4.0 | 0.00 | 0.03 | 0.00 | 94 | 972.7 |
| 20260903083037 | 72 | 1 | 3.0 | 5.0 | 0.00 | 0.03 | 0.00 | 95 | 972.7 |
| 20260903081537 | 71 | 1 | 3.0 | 5.0 | 0.00 | 0.03 | 0.00 | 96 | 972.7 |
| 20260903080037 | 71 | 1 | 2.0 | 4.0 | 0.00 | 0.03 | 0.00 | 96 | 972.7 |
| 20260903074539 | 70 | 1 | 2.0 | 4.0 | 0.00 | 0.03 | 0.00 | 96 | 972.7 |
| 20260903073035 | 70 | 1 | 2.0 | 3.0 | 0.00 | 0.03 | 0.00 | 96 | 972.6 |
| 20260903071537 | 71 | 1 | 0.0 | 0.0 | 0.00 | 0.03 | 0.00 | 95 | 972.8 |
| 20260903070033 | 71 | 1 | 0.0 | 2.0 | 0.00 | 0.03 | 0.00 | 95 | 972.9 |
| 20260903064529 | 72 | 1 | 0.0 | 1.0 | 0.00 | 0.03 | 0.00 | 95 | 972.9 |
| 20260903063028 | 72 | 1 | 0.0 | 2.0 | 0.00 | 0.03 | 0.00 | 95 | 972.9 |
| 20260903061527 | 72 | 1 | 0.0 | 2.0 | 0.00 | 0.03 | 0.00 | 94 | 973.0 |
| 20260903060025 | 73 | 1 | 0.0 | 1.0 | 0.00 | 0.03 | 0.00 | 93 | 973.0 |
| 20260903054522 | 73 | 1 | 1.0 | 3.0 | 0.00 | 0.03 | 0.00 | 93 | 973.1 |
| 20260903053022 | 74 | 1 | 2.0 | 4.0 | 0.00 | 0.03 | 0.00 | 92 | 973.0 |
| 20260903051539 | 74 | 1 | 2.0 | 5.0 | 0.00 | 0.03 | 0.00 | 93 | 973.0 |
| 20260903050018 | 74 | 1 | 1.0 | 4.0 | 0.00 | 0.03 | 0.00 | 93 | 973.1 |
| 20260903044519 | 74 | 2 | 3.0 | 5.0 | 0.00 | 0.03 | 0.03 | 93 | 973.0 |
| 20260903043040 | 74 | 2 | 3.0 | 5.0 | 0.00 | 0.03 | 0.03 | 93 | 973.0 |
| 20260903041520 | 74 | 1 | 3.0 | 4.0 | 0.00 | 0.03 | 0.03 | 93 | 973.0 |
| 20260903040018 | 74 | 2 | 2.0 | 4.0 | 0.00 | 0.03 | 0.03 | 95 | 973.0 |
| 20260903034527 | 74 | 2 | 1.0 | 3.0 | 0.00 | 0.03 | 0.03 | 95 | 973.0 |
| 20260903033018 | 74 | 2 | 1.0 | 3.0 | 0.00 | 0.03 | 0.03 | 95 | 973.1 |
| 20260903031515 | 75 | 2 | 1.0 | 3.0 | 0.00 | 0.03 | 0.03 | 95 | 973.1 |
| 20260903030014 | 75 | 2 | 0.0 | 2.0 | 0.00 | 0.03 | 0.03 | 96 | 973.1 |
| 20260903024517 | 75 | 2 | 0.0 | 2.0 | 0.00 | 0.03 | 0.03 | 96 | 973.0 |
| 20260903023015 | 75 | 2 | 1.0 | 2.0 | 0.00 | 0.03 | 0.03 | 96 | 973.0 |
| 20260903021514 | 75 | 2 | 0.0 | 2.0 | 0.00 | 0.03 | 0.03 | 95 | 973.0 |
| 20260903020015 | 75 | 2 | 1.0 | 2.0 | 0.00 | 0.03 | 0.03 | 94 | 972.8 |
| 20260903014517 | 76 | 2 | 1.0 | 3.0 | 0.00 | 0.03 | 0.03 | 93 | 972.6 |
| 20260903013011 | 77 | 2 | 1.0 | 3.0 | 0.00 | 0.03 | 0.03 | 91 | 972.6 |
| 20260903011515 | 77 | 2 | 1.0 | 4.0 | 0.00 | 0.03 | 0.03 | 91 | 972.4 |
| 20260903010010 | 77 | 1 | 0.0 | 2.0 | 0.00 | 0.03 | 0.03 | 91 | 972.4 |
| 20260903004510 | 77 | 1 | 0.0 | 2.0 | 0.00 | 0.03 | 0.03 | 91 | 972.4 |
| 20260903003011 | 78 | 1 | 2.0 | 4.0 | 0.00 | 0.03 | 0.03 | 90 | 972.3 |
| 20260903001509 | 79 | 1 | 3.0 | 4.0 | 0.00 | 0.03 | 0.03 | 89 | 972.2 |
| 20260903000008 | 80 | 1 | 2.0 | 3.0 | 0.00 | 0.03 | 0.03 | 88 | 972.4 |
| 20260902234507 | 80 | 1 | 2.0 | 6.0 | 0.00 | 0.03 | 0.03 | 87 | 972.5 |
| 20260902233005 | 81 | 1 | 3.0 | 7.0 | 0.00 | 0.03 | 0.03 | 85 | 972.5 |
| 20260902231505 | 82 | 1 | 3.0 | 7.0 | 0.00 | 0.03 | 0.03 | 83 | 972.6 |
| 20260902230004 | 81 | 1 | 2.0 | 6.0 | 0.00 | 0.03 | 0.03 | 83 | 972.7 |
| 20260902224503 | 81 | 1 | 3.0 | 6.0 | 0.00 | 0.03 | 0.03 | 83 | 972.7 |
| 20260902223009 | 80 | 1 | 2.0 | 5.0 | 0.00 | 0.03 | 0.03 | 86 | 972.8 |
| 20260902221502 | 81 | 1 | 2.0 | 6.0 | 0.00 | 0.03 | 0.03 | 84 | 972.8 |
| 20260902220002 | 80 | 1 | 2.0 | 3.0 | 0.00 | 0.03 | 0.03 | 85 | 972.8 |
| 20260902214602 | 81 | 1 | 1.0 | 3.0 | 0.00 | 0.03 | 0.03 | 84 | 973.1 |
| 20260902213104 | 82 | 1 | 2.0 | 8.0 | 0.00 | 0.03 | 0.03 | 85 | 973.4 |
| 20260902211602 | 79 | 2 | 0.0 | 5.0 | 0.00 | 0.03 | 0.03 | 88 | 973.6 |
| 20260902210058 | 79 | 1 | 1.0 | 4.0 | 0.01 | 0.03 | 0.03 | 88 | 973.7 |
| 20260902204555 | 78 | 1 | 3.0 | 5.0 | 0.01 | 0.03 | 0.03 | 86 | 973.8 |
| 20260902203102 | 77 | 2 | 0.0 | 1.0 | 0.01 | 0.03 | 0.03 | 86 | 973.8 |
| 20260902201605 | 76 | 10 | 0.0 | 5.0 | 0.01 | 0.03 | 0.03 | 85 | 973.7 |
| 20260902200130 | 78 | 2 | 3.0 | 12.0 | 0.02 | 0.02 | 0.02 | 82 | 973.8 |
| 20260902194553 | 81 | 2 | 2.0 | 4.0 | 0.02 | 0.02 | 0.02 | 87 | 974.6 |
| 20260902193053 | 82 | 1 | 0.0 | 2.0 | 0.02 | 0.02 | 0.02 | 87 | 974.3 |
| 20260902191553 | 82 | 1 | 0.0 | 2.0 | 0.02 | 0.02 | 0.02 | 84 | 974.6 |
| 20260902190100 | 85 | 10 | 3.0 | 6.0 | 0.00 | 0.00 | 0.00 | 74 | 974.7 |
| 20260902184549 | 86 | 1 | 2.0 | 6.0 | 0.00 | 0.00 | 0.00 | 75 | 974.8 |
| 20260902183052 | 86 | 360 | 4.0 | 7.0 | 0.00 | 0.00 | 0.00 | 73 | 974.8 |
| 20260902181549 | 86 | 10 | 2.0 | 4.0 | 0.00 | 0.00 | 0.00 | 75 | 975.0 |
| 20260902180049 | 86 | 1 | 2.0 | 5.0 | 0.00 | 0.00 | 0.00 | 63 | 975.3 |
| 20260902174547 | 86 | 10 | 2.0 | 5.0 | 0.00 | 0.00 | 0.00 | 73 | 975.4 |
| 20260902173046 | 86 | 10 | 3.0 | 7.0 | 0.00 | 0.00 | 0.00 | 72 | 975.3 |
| 20260902171544 | 86 | 359 | 3.0 | 6.0 | 0.00 | 0.00 | 0.00 | 73 | 975.3 |
| 20260902170041 | 85 | 2 | 3.0 | 5.0 | 0.00 | 0.00 | 0.00 | 75 | 975.6 |
| 20260902164539 | 84 | 359 | 2.0 | 5.0 | 0.00 | 0.00 | 0.00 | 78 | 975.6 |
| 20260902163038 | 84 | 1 | 1.0 | 6.0 | 0.00 | 0.00 | 0.00 | 79 | 975.7 |
| 20260902161544 | 83 | 18 | 3.0 | 5.0 | 0.00 | 0.00 | 0.00 | 77 | 975.8 |
| 20260902160036 | 83 | 1 | 4.0 | 7.0 | 0.00 | 0.00 | 0.00 | 78 | 975.7 |
| 20260902154532 | 83 | 30 | 4.0 | 8.0 | 0.00 | 0.00 | 0.00 | 78 | 975.4 |
| 20260902153029 | 81 | 27 | 4.0 | 7.0 | 0.00 | 0.00 | 0.00 | 82 | 975.4 |
| 20260902151526 | 80 | 42 | 4.0 | 7.0 | 0.00 | 0.00 | 0.00 | 84 | 975.5 |
| 20260902150025 | 80 | 1 | 4.0 | 7.0 | 0.00 | 0.00 | 0.00 | 84 | 975.2 |
| 20260902144520 | 79 | 4 | 3.0 | 6.0 | 0.00 | 0.00 | 0.00 | 85 | 975.2 |
| 20260902143018 | 78 | 16 | 2.0 | 5.0 | 0.00 | 0.00 | 0.00 | 86 | 975.1 |
| 20260902141522 | 76 | 43 | 2.0 | 4.0 | 0.00 | 0.00 | 0.00 | 86 | 975.3 |
| 20260902140011 | 75 | 2 | 2.0 | 5.0 | 0.00 | 0.00 | 0.00 | 89 | 975.3 |
| 20260902134510 | 73 | 2 | 1.0 | 4.0 | 0.00 | 0.00 | 0.00 | 92 | 975.3 |
| 20260902133010 | 72 | 1 | 0.0 | 3.0 | 0.00 | 0.00 | 0.00 | 92 | 975.6 |
| 20260902131513 | 71 | 16 | 2.0 | 5.0 | 0.00 | 0.00 | 0.00 | 94 | 975.4 |
| 20260902130009 | 70 | 1 | 0.0 | 3.0 | 0.00 | 0.00 | 0.00 | 96 | 975.4 |
| 20260902124508 | 69 | 10 | 0.0 | 1.0 | 0.00 | 0.00 | 0.00 | 95 | 975.6 |
| 20260902123009 | 69 | 10 | 0.0 | 1.0 | 0.00 | 0.00 | 0.00 | 94 | 975.6 |
| 20260902121506 | 69 | 10 | 0.0 | 0.0 | 0.00 | 0.00 | 0.00 | 93 | 975.6 |
| 20260902120006 | 69 | 9 | 0.0 | 0.0 | 0.00 | 0.00 | 0.00 | 93 | 975.7 |
| 20260902114504 | 69 | 9 | 0.0 | 0.0 | 0.00 | 0.00 | 0.00 | 92 | 975.6 |
| 20260902113113 | 70 | 9 | 0.0 | 0.0 | 0.00 | 0.00 | 0.00 | 90 | 975.5 |
| 20260902111601 | 72 | 9 | 0.0 | 1.0 | 0.00 | 0.00 | 0.00 | 88 | 975.6 |
| 20260902110058 | 72 | 9 | 0.0 | 1.0 | 0.00 | 0.00 | 0.00 | 88 | 975.7 |
| 20260902104557 | 73 | 7 | 0.0 | 6.0 | 0.00 | 0.00 | 0.00 | 87 | 975.9 |
| 20260902103054 | 74 | 7 | 1.0 | 7.0 | 0.00 | 0.00 | 0.00 | 87 | 975.9 |
| 20260902101607 | 74 | 5 | 1.0 | 5.0 | 0.00 | 0.00 | 0.00 | 86 | 976.3 |
| 20260902100054 | 75 | 6 | 2.0 | 13.0 | 0.00 | 0.00 | 0.00 | 84 | 976.2 |
| 20260902094553 | 75 | 6 | 2.0 | 12.0 | 0.00 | 0.00 | 0.00 | 83 | 976.4 |
| 20260902093048 | 76 | 5 | 2.0 | 12.0 | 0.00 | 0.00 | 0.00 | 81 | 976.2 |
| 20260902091549 | 74 | 6 | 2.0 | 15.0 | 0.00 | 0.00 | 0.00 | 84 | 975.8 |